sensor_id;sensor_type;location;lat;lon;timestamp;pressure;altitude;pressure_sealevel;temperature;humidity
65013;BME280;51715;39.432;-77.518;2023-05-12T00:00:40;99839.23;;;27.80;25.44
65013;BME280;51715;39.432;-77.518;2023-05-12T00:03:08;99841.94;;;27.24;26.09
65013;BME280;51715;39.432;-77.518;2023-05-12T00:05:38;99845.09;;;27.24;26.64
65013;BME280;51715;39.432;-77.518;2023-05-12T00:08:07;99847.20;;;27.14;27.45
65013;BME280;51715;39.432;-77.518;2023-05-12T00:10:35;99846.83;;;26.82;27.84
65013;BME280;51715;39.432;-77.518;2023-05-12T00:13:03;99850.00;;;26.63;27.94
65013;BME280;51715;39.432;-77.518;2023-05-12T00:15:33;99856.90;;;26.65;27.97
65013;BME280;51715;39.432;-77.518;2023-05-12T00:18:02;99860.03;;;26.27;28.02
65013;BME280;51715;39.432;-77.518;2023-05-12T00:20:31;99861.02;;;26.67;28.16
65013;BME280;51715;39.432;-77.518;2023-05-12T00:23:05;99867.42;;;26.34;28.32
65013;BME280;51715;39.432;-77.518;2023-05-12T00:25:34;99876.97;;;25.96;28.62
65013;BME280;51715;39.432;-77.518;2023-05-12T00:28:04;99880.63;;;25.85;29.25
65013;BME280;51715;39.432;-77.518;2023-05-12T00:30:33;99885.74;;;25.92;29.62
65013;BME280;51715;39.432;-77.518;2023-05-12T00:33:01;99887.98;;;25.91;30.08
65013;BME280;51715;39.432;-77.518;2023-05-12T00:35:29;99886.34;;;25.67;30.63
65013;BME280;51715;39.432;-77.518;2023-05-12T00:37:59;99886.14;;;25.45;30.86
65013;BME280;51715;39.432;-77.518;2023-05-12T00:40:29;99889.51;;;25.14;31.41
65013;BME280;51715;39.432;-77.518;2023-05-12T00:42:57;99894.57;;;24.91;31.50
65013;BME280;51715;39.432;-77.518;2023-05-12T00:45:28;99897.20;;;25.12;32.28
65013;BME280;51715;39.432;-77.518;2023-05-12T00:47:58;99899.11;;;24.73;32.37
65013;BME280;51715;39.432;-77.518;2023-05-12T00:50:27;99902.15;;;24.74;32.33
65013;BME280;51715;39.432;-77.518;2023-05-12T00:52:57;99905.33;;;24.62;32.62
65013;BME280;51715;39.432;-77.518;2023-05-12T00:55:26;99908.25;;;24.26;32.51
65013;BME280;51715;39.432;-77.518;2023-05-12T00:57:57;99918.07;;;24.39;32.66
65013;BME280;51715;39.432;-77.518;2023-05-12T01:00:25;99922.66;;;24.37;32.67
65013;BME280;51715;39.432;-77.518;2023-05-12T01:02:54;99923.16;;;24.33;32.48
65013;BME280;51715;39.432;-77.518;2023-05-12T01:05:23;99924.93;;;23.81;32.62
65013;BME280;51715;39.432;-77.518;2023-05-12T01:07:53;99931.81;;;24.21;32.79
65013;BME280;51715;39.432;-77.518;2023-05-12T01:10:23;99934.11;;;24.07;33.07
65013;BME280;51715;39.432;-77.518;2023-05-12T01:12:51;99937.73;;;23.96;33.24
65013;BME280;51715;39.432;-77.518;2023-05-12T01:15:21;99939.82;;;23.85;33.33
65013;BME280;51715;39.432;-77.518;2023-05-12T01:17:54;99946.78;;;23.84;33.65
65013;BME280;51715;39.432;-77.518;2023-05-12T01:20:26;99948.62;;;23.65;33.70
65013;BME280;51715;39.432;-77.518;2023-05-12T01:22:58;99948.81;;;23.44;34.00
65013;BME280;51715;39.432;-77.518;2023-05-12T01:25:31;99951.70;;;23.19;34.06
65013;BME280;51715;39.432;-77.518;2023-05-12T01:28:02;99954.84;;;23.37;34.26
65013;BME280;51715;39.432;-77.518;2023-05-12T01:30:31;99959.66;;;23.26;34.30
65013;BME280;51715;39.432;-77.518;2023-05-12T01:33:02;99962.81;;;23.19;34.08
65013;BME280;51715;39.432;-77.518;2023-05-12T01:35:31;99965.32;;;23.23;34.60
65013;BME280;51715;39.432;-77.518;2023-05-12T01:37:59;99963.35;;;23.13;34.57
65013;BME280;51715;39.432;-77.518;2023-05-12T01:40:27;99961.22;;;22.98;34.72
65013;BME280;51715;39.432;-77.518;2023-05-12T01:42:56;99961.45;;;22.84;34.85
65013;BME280;51715;39.432;-77.518;2023-05-12T01:45:25;99960.32;;;22.75;34.74
65013;BME280;51715;39.432;-77.518;2023-05-12T01:47:54;99962.84;;;22.71;34.90
65013;BME280;51715;39.432;-77.518;2023-05-12T01:50:23;99968.84;;;22.55;35.37
65013;BME280;51715;39.432;-77.518;2023-05-12T01:52:51;99969.47;;;22.66;35.34
65013;BME280;51715;39.432;-77.518;2023-05-12T01:55:20;99964.45;;;22.61;35.43
65013;BME280;51715;39.432;-77.518;2023-05-12T01:57:48;99964.76;;;22.45;35.65
65013;BME280;51715;39.432;-77.518;2023-05-12T02:00:18;99970.59;;;22.37;35.91
65013;BME280;51715;39.432;-77.518;2023-05-12T02:02:46;99972.82;;;22.30;35.65
65013;BME280;51715;39.432;-77.518;2023-05-12T02:05:14;99974.45;;;22.27;35.61
65013;BME280;51715;39.432;-77.518;2023-05-12T02:07:43;99976.36;;;22.21;35.81
65013;BME280;51715;39.432;-77.518;2023-05-12T02:10:13;99974.54;;;21.97;35.70
65013;BME280;51715;39.432;-77.518;2023-05-12T02:12:41;99974.21;;;22.31;35.76
65013;BME280;51715;39.432;-77.518;2023-05-12T02:15:10;99974.65;;;21.94;35.95
65013;BME280;51715;39.432;-77.518;2023-05-12T02:17:38;99974.52;;;22.06;36.03
65013;BME280;51715;39.432;-77.518;2023-05-12T02:20:08;99973.06;;;21.78;36.08
65013;BME280;51715;39.432;-77.518;2023-05-12T02:22:37;99970.95;;;21.88;36.36
65013;BME280;51715;39.432;-77.518;2023-05-12T02:25:06;99973.08;;;21.88;36.44
65013;BME280;51715;39.432;-77.518;2023-05-12T02:27:35;99974.07;;;21.75;36.44
65013;BME280;51715;39.432;-77.518;2023-05-12T02:30:06;99974.36;;;21.87;36.67
65013;BME280;51715;39.432;-77.518;2023-05-12T02:32:36;99974.05;;;21.60;37.11
65013;BME280;51715;39.432;-77.518;2023-05-12T02:35:06;99976.81;;;21.83;37.17
65013;BME280;51715;39.432;-77.518;2023-05-12T02:37:35;99981.92;;;21.57;37.10
65013;BME280;51715;39.432;-77.518;2023-05-12T02:40:04;99982.31;;;21.59;36.74
65013;BME280;51715;39.432;-77.518;2023-05-12T02:42:33;99982.23;;;21.47;36.94
65013;BME280;51715;39.432;-77.518;2023-05-12T02:45:01;99980.99;;;21.43;36.93
65013;BME280;51715;39.432;-77.518;2023-05-12T02:47:30;99978.68;;;21.41;36.97
65013;BME280;51715;39.432;-77.518;2023-05-12T02:49:59;99978.94;;;21.49;37.28
65013;BME280;51715;39.432;-77.518;2023-05-12T02:52:27;99974.51;;;21.22;37.62
65013;BME280;51715;39.432;-77.518;2023-05-12T02:54:55;99974.12;;;21.17;37.61
65013;BME280;51715;39.432;-77.518;2023-05-12T02:57:25;99972.01;;;21.05;37.87
65013;BME280;51715;39.432;-77.518;2023-05-12T02:59:53;99973.35;;;20.95;38.23
65013;BME280;51715;39.432;-77.518;2023-05-12T03:02:23;99974.02;;;20.97;38.55
65013;BME280;51715;39.432;-77.518;2023-05-12T03:04:52;99974.21;;;20.78;38.39
65013;BME280;51715;39.432;-77.518;2023-05-12T03:07:19;99978.02;;;20.97;38.31
65013;BME280;51715;39.432;-77.518;2023-05-12T03:09:48;99977.40;;;21.00;38.24
65013;BME280;51715;39.432;-77.518;2023-05-12T03:12:18;99976.62;;;20.80;38.17
65013;BME280;51715;39.432;-77.518;2023-05-12T03:14:47;99977.73;;;20.46;38.30
65013;BME280;51715;39.432;-77.518;2023-05-12T03:17:16;99971.50;;;20.94;37.98
65013;BME280;51715;39.432;-77.518;2023-05-12T03:19:45;99967.19;;;20.85;38.11
65013;BME280;51715;39.432;-77.518;2023-05-12T03:22:14;99968.29;;;20.49;39.21
65013;BME280;51715;39.432;-77.518;2023-05-12T03:24:42;99970.64;;;20.17;39.38
65013;BME280;51715;39.432;-77.518;2023-05-12T03:27:10;99970.83;;;20.34;38.94
65013;BME280;51715;39.432;-77.518;2023-05-12T03:29:38;99970.05;;;20.30;39.00
65013;BME280;51715;39.432;-77.518;2023-05-12T03:32:07;99965.60;;;20.59;38.71
65013;BME280;51715;39.432;-77.518;2023-05-12T03:34:36;99963.01;;;20.39;39.15
65013;BME280;51715;39.432;-77.518;2023-05-12T03:37:05;99963.28;;;20.03;39.15
65013;BME280;51715;39.432;-77.518;2023-05-12T03:39:33;99961.07;;;19.73;39.98
65013;BME280;51715;39.432;-77.518;2023-05-12T03:42:02;99961.41;;;19.87;39.93
65013;BME280;51715;39.432;-77.518;2023-05-12T03:44:31;99964.70;;;20.13;39.72
65013;BME280;51715;39.432;-77.518;2023-05-12T03:47:00;99971.38;;;19.81;40.67
65013;BME280;51715;39.432;-77.518;2023-05-12T03:49:28;99975.13;;;19.83;40.06
65013;BME280;51715;39.432;-77.518;2023-05-12T03:51:56;99973.97;;;19.81;40.38
65013;BME280;51715;39.432;-77.518;2023-05-12T03:54:24;99976.87;;;19.88;40.49
65013;BME280;51715;39.432;-77.518;2023-05-12T03:56:53;99976.30;;;19.87;40.60
65013;BME280;51715;39.432;-77.518;2023-05-12T03:59:22;99975.08;;;19.64;40.53
65013;BME280;51715;39.432;-77.518;2023-05-12T04:04:08;99972.52;;;19.82;39.00
65013;BME280;51715;39.432;-77.518;2023-05-12T04:06:36;99972.95;;;20.05;39.07
65013;BME280;51715;39.432;-77.518;2023-05-12T04:09:04;99966.56;;;19.73;38.94
65013;BME280;51715;39.432;-77.518;2023-05-12T04:11:32;99968.22;;;20.15;39.18
65013;BME280;51715;39.432;-77.518;2023-05-12T04:14:00;99973.35;;;20.27;39.66
65013;BME280;51715;39.432;-77.518;2023-05-12T04:16:29;99972.95;;;20.07;39.81
65013;BME280;51715;39.432;-77.518;2023-05-12T04:18:57;99970.80;;;19.90;40.46
65013;BME280;51715;39.432;-77.518;2023-05-12T04:21:26;99966.32;;;19.65;40.85
65013;BME280;51715;39.432;-77.518;2023-05-12T04:23:54;99970.92;;;19.66;41.06
65013;BME280;51715;39.432;-77.518;2023-05-12T04:26:22;99970.10;;;19.22;41.59
65013;BME280;51715;39.432;-77.518;2023-05-12T04:28:50;99969.81;;;19.41;41.41
65013;BME280;51715;39.432;-77.518;2023-05-12T04:31:19;99968.68;;;19.36;41.19
65013;BME280;51715;39.432;-77.518;2023-05-12T04:33:47;99962.63;;;19.41;41.07
65013;BME280;51715;39.432;-77.518;2023-05-12T04:36:15;99958.85;;;19.34;41.31
65013;BME280;51715;39.432;-77.518;2023-05-12T04:38:44;99958.83;;;19.20;41.11
65013;BME280;51715;39.432;-77.518;2023-05-12T04:41:12;99955.50;;;19.41;41.26
65013;BME280;51715;39.432;-77.518;2023-05-12T04:43:40;99952.59;;;19.47;40.97
65013;BME280;51715;39.432;-77.518;2023-05-12T04:46:09;99952.73;;;19.31;40.84
65013;BME280;51715;39.432;-77.518;2023-05-12T04:48:37;99952.64;;;19.42;40.52
65013;BME280;51715;39.432;-77.518;2023-05-12T04:51:06;99952.18;;;19.69;40.30
65013;BME280;51715;39.432;-77.518;2023-05-12T04:53:35;99948.87;;;19.39;40.50
65013;BME280;51715;39.432;-77.518;2023-05-12T04:56:04;99947.24;;;19.55;40.65
65013;BME280;51715;39.432;-77.518;2023-05-12T04:58:32;99948.05;;;19.29;40.33
65013;BME280;51715;39.432;-77.518;2023-05-12T05:01:01;99951.99;;;19.68;40.74
65013;BME280;51715;39.432;-77.518;2023-05-12T05:03:29;99950.89;;;19.72;40.24
65013;BME280;51715;39.432;-77.518;2023-05-12T05:05:58;99951.02;;;19.39;40.67
65013;BME280;51715;39.432;-77.518;2023-05-12T05:08:25;99949.08;;;19.39;40.44
65013;BME280;51715;39.432;-77.518;2023-05-12T05:10:53;99949.78;;;19.51;40.71
65013;BME280;51715;39.432;-77.518;2023-05-12T05:13:21;99942.36;;;19.42;40.61
65013;BME280;51715;39.432;-77.518;2023-05-12T05:15:49;99939.06;;;18.94;41.33
65013;BME280;51715;39.432;-77.518;2023-05-12T05:18:17;99935.03;;;19.00;41.48
65013;BME280;51715;39.432;-77.518;2023-05-12T05:20:45;99932.41;;;19.10;41.37
65013;BME280;51715;39.432;-77.518;2023-05-12T05:23:13;99928.95;;;19.32;41.30
65013;BME280;51715;39.432;-77.518;2023-05-12T05:25:43;99927.45;;;19.06;41.06
65013;BME280;51715;39.432;-77.518;2023-05-12T05:28:12;99924.02;;;19.01;41.14
65013;BME280;51715;39.432;-77.518;2023-05-12T05:30:40;99919.60;;;19.11;41.61
65013;BME280;51715;39.432;-77.518;2023-05-12T05:33:08;99913.77;;;19.23;41.85
65013;BME280;51715;39.432;-77.518;2023-05-12T05:35:36;99915.50;;;18.91;41.99
65013;BME280;51715;39.432;-77.518;2023-05-12T05:38:05;99919.21;;;18.66;42.05
65013;BME280;51715;39.432;-77.518;2023-05-12T05:40:33;99912.17;;;18.87;41.84
65013;BME280;51715;39.432;-77.518;2023-05-12T05:43:01;99908.70;;;18.83;41.68
65013;BME280;51715;39.432;-77.518;2023-05-12T05:45:30;99903.14;;;19.11;41.81
65013;BME280;51715;39.432;-77.518;2023-05-12T05:47:58;99901.44;;;18.80;42.08
65013;BME280;51715;39.432;-77.518;2023-05-12T05:50:26;99897.01;;;18.91;42.24
65013;BME280;51715;39.432;-77.518;2023-05-12T05:52:54;99895.24;;;18.71;41.86
65013;BME280;51715;39.432;-77.518;2023-05-12T05:55:22;99892.41;;;18.51;41.54
65013;BME280;51715;39.432;-77.518;2023-05-12T05:57:51;99889.79;;;18.78;41.68
65013;BME280;51715;39.432;-77.518;2023-05-12T06:00:20;99882.18;;;19.07;41.78
65013;BME280;51715;39.432;-77.518;2023-05-12T06:02:49;99880.78;;;18.74;42.05
65013;BME280;51715;39.432;-77.518;2023-05-12T06:05:18;99871.32;;;18.90;42.20
65013;BME280;51715;39.432;-77.518;2023-05-12T06:07:46;99862.82;;;18.92;42.08
65013;BME280;51715;39.432;-77.518;2023-05-12T06:10:14;99859.56;;;18.76;42.39
65013;BME280;51715;39.432;-77.518;2023-05-12T06:12:42;99859.63;;;18.48;42.44
65013;BME280;51715;39.432;-77.518;2023-05-12T06:15:12;99859.47;;;18.42;42.26
65013;BME280;51715;39.432;-77.518;2023-05-12T06:17:40;99858.27;;;18.48;42.33
65013;BME280;51715;39.432;-77.518;2023-05-12T06:20:09;99858.78;;;18.66;42.64
65013;BME280;51715;39.432;-77.518;2023-05-12T06:22:38;99859.45;;;18.74;42.25
65013;BME280;51715;39.432;-77.518;2023-05-12T06:25:06;99856.69;;;18.78;42.19
65013;BME280;51715;39.432;-77.518;2023-05-12T06:27:34;99852.78;;;18.56;41.93
65013;BME280;51715;39.432;-77.518;2023-05-12T06:30:04;99852.39;;;18.62;41.64
65013;BME280;51715;39.432;-77.518;2023-05-12T06:32:32;99848.15;;;18.94;41.73
65013;BME280;51715;39.432;-77.518;2023-05-12T06:35:00;99845.31;;;18.46;41.72
65013;BME280;51715;39.432;-77.518;2023-05-12T06:37:28;99834.41;;;18.66;41.76
65013;BME280;51715;39.432;-77.518;2023-05-12T06:39:57;99830.54;;;18.61;41.83
65013;BME280;51715;39.432;-77.518;2023-05-12T06:42:26;99829.24;;;18.61;41.61
65013;BME280;51715;39.432;-77.518;2023-05-12T06:44:54;99827.28;;;18.59;41.21
65013;BME280;51715;39.432;-77.518;2023-05-12T06:47:23;99826.38;;;18.62;40.97
65013;BME280;51715;39.432;-77.518;2023-05-12T06:49:51;99827.43;;;18.42;41.32
65013;BME280;51715;39.432;-77.518;2023-05-12T06:52:19;99826.80;;;18.84;41.66
65013;BME280;51715;39.432;-77.518;2023-05-12T06:54:47;99822.53;;;18.76;41.87
65013;BME280;51715;39.432;-77.518;2023-05-12T06:57:15;99823.92;;;18.48;41.95
65013;BME280;51715;39.432;-77.518;2023-05-12T06:59:43;99827.39;;;18.44;41.78
65013;BME280;51715;39.432;-77.518;2023-05-12T07:02:11;99828.50;;;18.48;41.60
65013;BME280;51715;39.432;-77.518;2023-05-12T07:04:39;99829.29;;;18.76;41.70
65013;BME280;51715;39.432;-77.518;2023-05-12T07:07:07;99832.65;;;18.46;41.86
65013;BME280;51715;39.432;-77.518;2023-05-12T07:09:36;99837.36;;;18.46;41.27
65013;BME280;51715;39.432;-77.518;2023-05-12T07:12:04;99833.71;;;18.70;41.00
65013;BME280;51715;39.432;-77.518;2023-05-12T07:14:33;99833.50;;;18.68;41.46
65013;BME280;51715;39.432;-77.518;2023-05-12T07:17:01;99835.02;;;18.40;41.47
65013;BME280;51715;39.432;-77.518;2023-05-12T07:19:30;99836.43;;;18.40;41.93
65013;BME280;51715;39.432;-77.518;2023-05-12T07:21:58;99836.99;;;18.40;41.90
65013;BME280;51715;39.432;-77.518;2023-05-12T07:24:26;99836.53;;;18.64;41.80
65013;BME280;51715;39.432;-77.518;2023-05-12T07:26:55;99836.86;;;18.63;41.56
65013;BME280;51715;39.432;-77.518;2023-05-12T07:29:23;99841.60;;;18.35;41.90
65013;BME280;51715;39.432;-77.518;2023-05-12T07:31:51;99840.54;;;18.41;41.45
65013;BME280;51715;39.432;-77.518;2023-05-12T07:34:20;99844.28;;;18.72;40.89
65013;BME280;51715;39.432;-77.518;2023-05-12T07:36:48;99846.43;;;18.46;40.96
65013;BME280;51715;39.432;-77.518;2023-05-12T07:39:17;99849.78;;;18.47;41.04
65013;BME280;51715;39.432;-77.518;2023-05-12T07:41:44;99848.82;;;18.38;41.69
65013;BME280;51715;39.432;-77.518;2023-05-12T07:44:13;99849.68;;;18.63;41.89
65013;BME280;51715;39.432;-77.518;2023-05-12T07:46:41;99850.32;;;18.61;42.08
65013;BME280;51715;39.432;-77.518;2023-05-12T07:49:09;99851.87;;;18.59;42.00
65013;BME280;51715;39.432;-77.518;2023-05-12T07:51:37;99849.75;;;18.33;41.95
65013;BME280;51715;39.432;-77.518;2023-05-12T07:54:05;99846.20;;;18.29;42.02
65013;BME280;51715;39.432;-77.518;2023-05-12T07:56:33;99844.48;;;18.44;42.37
65013;BME280;51715;39.432;-77.518;2023-05-12T07:59:01;99848.26;;;18.39;42.46
65013;BME280;51715;39.432;-77.518;2023-05-12T08:01:29;99844.90;;;18.39;41.87
65013;BME280;51715;39.432;-77.518;2023-05-12T08:03:57;99843.30;;;18.38;41.60
65013;BME280;51715;39.432;-77.518;2023-05-12T08:06:25;99841.58;;;18.34;41.74
65013;BME280;51715;39.432;-77.518;2023-05-12T08:08:54;99840.15;;;18.07;41.51
65013;BME280;51715;39.432;-77.518;2023-05-12T08:11:22;99841.78;;;18.26;41.99
65013;BME280;51715;39.432;-77.518;2023-05-12T08:13:51;99839.44;;;18.44;41.69
65013;BME280;51715;39.432;-77.518;2023-05-12T08:16:19;99838.64;;;18.18;41.45
65013;BME280;51715;39.432;-77.518;2023-05-12T08:18:48;99838.64;;;18.16;41.70
65013;BME280;51715;39.432;-77.518;2023-05-12T08:21:17;99839.00;;;18.59;41.44
65013;BME280;51715;39.432;-77.518;2023-05-12T08:23:45;99842.60;;;18.07;41.96
65013;BME280;51715;39.432;-77.518;2023-05-12T08:26:13;99847.19;;;18.23;42.23
65013;BME280;51715;39.432;-77.518;2023-05-12T08:28:41;99848.44;;;18.05;42.06
65013;BME280;51715;39.432;-77.518;2023-05-12T08:31:10;99851.29;;;18.04;41.95
65013;BME280;51715;39.432;-77.518;2023-05-12T08:33:38;99857.70;;;17.99;41.91
65013;BME280;51715;39.432;-77.518;2023-05-12T08:36:07;99857.93;;;17.96;42.34
65013;BME280;51715;39.432;-77.518;2023-05-12T08:38:36;99859.31;;;17.87;42.58
65013;BME280;51715;39.432;-77.518;2023-05-12T08:41:13;99857.49;;;17.81;42.70
65013;BME280;51715;39.432;-77.518;2023-05-12T08:43:44;99857.15;;;17.83;42.51
65013;BME280;51715;39.432;-77.518;2023-05-12T08:46:12;99857.13;;;17.88;42.45
65013;BME280;51715;39.432;-77.518;2023-05-12T08:48:41;99859.92;;;17.96;42.14
65013;BME280;51715;39.432;-77.518;2023-05-12T08:51:10;99859.19;;;17.99;41.94
65013;BME280;51715;39.432;-77.518;2023-05-12T08:53:40;99858.24;;;17.88;42.36
65013;BME280;51715;39.432;-77.518;2023-05-12T08:56:09;99857.35;;;17.82;42.31
65013;BME280;51715;39.432;-77.518;2023-05-12T08:58:37;99857.36;;;18.02;42.63
65013;BME280;51715;39.432;-77.518;2023-05-12T09:01:06;99857.46;;;17.80;42.61
65013;BME280;51715;39.432;-77.518;2023-05-12T09:03:34;99857.08;;;17.77;42.78
65013;BME280;51715;39.432;-77.518;2023-05-12T09:06:05;99856.18;;;18.04;42.79
65013;BME280;51715;39.432;-77.518;2023-05-12T09:08:33;99856.18;;;18.02;42.93
65013;BME280;51715;39.432;-77.518;2023-05-12T09:11:02;99857.37;;;17.81;42.70
65013;BME280;51715;39.432;-77.518;2023-05-12T09:13:38;99861.84;;;17.82;42.77
65013;BME280;51715;39.432;-77.518;2023-05-12T09:16:11;99864.97;;;18.00;42.88
65013;BME280;51715;39.432;-77.518;2023-05-12T09:18:45;99862.89;;;17.80;43.08
65013;BME280;51715;39.432;-77.518;2023-05-12T09:21:14;99863.82;;;17.72;43.50
65013;BME280;51715;39.432;-77.518;2023-05-12T09:23:52;99866.97;;;17.75;43.43
65013;BME280;51715;39.432;-77.518;2023-05-12T09:26:20;99870.33;;;17.80;43.46
65013;BME280;51715;39.432;-77.518;2023-05-12T09:28:48;99873.53;;;17.57;43.60
65013;BME280;51715;39.432;-77.518;2023-05-12T09:31:18;99872.49;;;18.03;43.49
65013;BME280;51715;39.432;-77.518;2023-05-12T09:33:47;99873.51;;;17.81;43.16
65013;BME280;51715;39.432;-77.518;2023-05-12T09:36:18;99876.99;;;17.54;43.63
65013;BME280;51715;39.432;-77.518;2023-05-12T09:38:58;99875.14;;;17.79;43.81
65013;BME280;51715;39.432;-77.518;2023-05-12T09:41:26;99871.58;;;17.39;43.78
65013;BME280;51715;39.432;-77.518;2023-05-12T09:43:55;99876.57;;;17.33;43.54
65013;BME280;51715;39.432;-77.518;2023-05-12T09:46:24;99882.27;;;17.80;43.91
65013;BME280;51715;39.432;-77.518;2023-05-12T09:48:55;99878.42;;;17.53;44.12
65013;BME280;51715;39.432;-77.518;2023-05-12T09:51:25;99877.92;;;17.53;44.20
65013;BME280;51715;39.432;-77.518;2023-05-12T09:53:54;99876.85;;;17.41;43.95
65013;BME280;51715;39.432;-77.518;2023-05-12T09:56:22;99875.67;;;17.70;43.84
65013;BME280;51715;39.432;-77.518;2023-05-12T09:58:55;99877.87;;;17.58;43.83
65013;BME280;51715;39.432;-77.518;2023-05-12T10:01:25;99883.45;;;17.65;43.28
65013;BME280;51715;39.432;-77.518;2023-05-12T10:03:54;99887.37;;;17.69;43.36
65013;BME280;51715;39.432;-77.518;2023-05-12T10:06:25;99891.30;;;17.71;42.89
65013;BME280;51715;39.432;-77.518;2023-05-12T10:09:01;99894.87;;;17.76;42.72
65013;BME280;51715;39.432;-77.518;2023-05-12T10:11:32;99898.58;;;18.24;42.59
65013;BME280;51715;39.432;-77.518;2023-05-12T10:14:01;99902.17;;;17.76;42.36
65013;BME280;51715;39.432;-77.518;2023-05-12T10:16:30;99904.57;;;18.16;42.12
65013;BME280;51715;39.432;-77.518;2023-05-12T10:19:00;99909.35;;;17.71;42.37
65013;BME280;51715;39.432;-77.518;2023-05-12T10:21:31;99911.42;;;17.66;42.37
65013;BME280;51715;39.432;-77.518;2023-05-12T10:24:00;99912.60;;;17.65;42.46
65013;BME280;51715;39.432;-77.518;2023-05-12T10:26:31;99911.98;;;17.79;42.16
65013;BME280;51715;39.432;-77.518;2023-05-12T10:29:00;99910.59;;;17.76;42.45
65013;BME280;51715;39.432;-77.518;2023-05-12T10:31:29;99912.49;;;17.71;42.77
65013;BME280;51715;39.432;-77.518;2023-05-12T10:33:59;99911.10;;;18.08;43.21
65013;BME280;51715;39.432;-77.518;2023-05-12T10:36:28;99909.90;;;17.68;43.30
65013;BME280;51715;39.432;-77.518;2023-05-12T10:39:04;99914.23;;;17.85;43.72
65013;BME280;51715;39.432;-77.518;2023-05-12T10:41:33;99919.78;;;17.92;43.86
65013;BME280;51715;39.432;-77.518;2023-05-12T10:44:02;99919.76;;;17.82;43.71
65013;BME280;51715;39.432;-77.518;2023-05-12T10:46:30;99921.47;;;17.90;43.71
65013;BME280;51715;39.432;-77.518;2023-05-12T10:49:00;99924.36;;;17.94;43.89
65013;BME280;51715;39.432;-77.518;2023-05-12T10:51:30;99927.61;;;18.25;44.14
65013;BME280;51715;39.432;-77.518;2023-05-12T10:54:01;99930.64;;;18.13;44.07
65013;BME280;51715;39.432;-77.518;2023-05-12T10:56:40;99930.50;;;18.01;44.06
65013;BME280;51715;39.432;-77.518;2023-05-12T10:59:15;99932.26;;;18.36;43.63
65013;BME280;51715;39.432;-77.518;2023-05-12T11:01:57;99932.61;;;18.57;43.46
65013;BME280;51715;39.432;-77.518;2023-05-12T11:04:36;99937.48;;;18.66;43.40
65013;BME280;51715;39.432;-77.518;2023-05-12T11:07:06;99940.81;;;18.79;43.20
65013;BME280;51715;39.432;-77.518;2023-05-12T11:09:35;99939.82;;;18.73;43.43
65013;BME280;51715;39.432;-77.518;2023-05-12T11:12:07;99940.49;;;19.11;43.19
65013;BME280;51715;39.432;-77.518;2023-05-12T11:14:39;99946.15;;;19.08;42.89
65013;BME280;51715;39.432;-77.518;2023-05-12T11:17:08;99948.07;;;19.42;42.86
65013;BME280;51715;39.432;-77.518;2023-05-12T11:19:38;99949.88;;;19.35;42.82
65013;BME280;51715;39.432;-77.518;2023-05-12T11:22:08;99955.93;;;19.50;42.88
65013;BME280;51715;39.432;-77.518;2023-05-12T11:24:38;99952.96;;;19.67;42.80
65013;BME280;51715;39.432;-77.518;2023-05-12T11:27:13;99955.51;;;19.85;42.65
65013;BME280;51715;39.432;-77.518;2023-05-12T11:29:42;99950.88;;;19.51;42.38
65013;BME280;51715;39.432;-77.518;2023-05-12T11:32:11;99948.63;;;19.94;42.79
65013;BME280;51715;39.432;-77.518;2023-05-12T11:34:39;99951.85;;;19.79;42.87
65013;BME280;51715;39.432;-77.518;2023-05-12T11:37:08;99956.27;;;20.22;42.51
65013;BME280;51715;39.432;-77.518;2023-05-12T11:39:37;99957.91;;;20.06;42.19
65013;BME280;51715;39.432;-77.518;2023-05-12T11:42:07;99961.81;;;20.20;42.24
65013;BME280;51715;39.432;-77.518;2023-05-12T11:44:35;99965.72;;;20.32;42.90
65013;BME280;51715;39.432;-77.518;2023-05-12T11:47:12;99968.95;;;20.52;42.78
65013;BME280;51715;39.432;-77.518;2023-05-12T11:49:46;99970.57;;;20.47;42.98
65013;BME280;51715;39.432;-77.518;2023-05-12T11:52:16;99971.39;;;20.66;42.77
65013;BME280;51715;39.432;-77.518;2023-05-12T11:54:49;99974.50;;;20.86;42.55
65013;BME280;51715;39.432;-77.518;2023-05-12T11:57:25;99976.21;;;21.30;42.79
65013;BME280;51715;39.432;-77.518;2023-05-12T11:59:58;99983.99;;;21.08;42.48
65013;BME280;51715;39.432;-77.518;2023-05-12T12:02:27;99986.24;;;21.31;41.91
65013;BME280;51715;39.432;-77.518;2023-05-12T12:04:56;99984.85;;;21.51;41.70
65013;BME280;51715;39.432;-77.518;2023-05-12T12:07:32;99990.03;;;21.73;42.07
65013;BME280;51715;39.432;-77.518;2023-05-12T12:10:10;99993.64;;;21.95;41.91
65013;BME280;51715;39.432;-77.518;2023-05-12T12:12:39;99998.41;;;22.22;41.34
65013;BME280;51715;39.432;-77.518;2023-05-12T12:15:08;99998.95;;;22.05;41.48
65013;BME280;51715;39.432;-77.518;2023-05-12T12:17:36;100001.86;;;22.40;41.41
65013;BME280;51715;39.432;-77.518;2023-05-12T12:20:07;100000.87;;;22.75;40.49
65013;BME280;51715;39.432;-77.518;2023-05-12T12:22:36;100000.61;;;22.81;40.57
65013;BME280;51715;39.432;-77.518;2023-05-12T12:25:06;100002.99;;;23.11;39.86
65013;BME280;51715;39.432;-77.518;2023-05-12T12:27:35;100005.60;;;23.29;39.88
65013;BME280;51715;39.432;-77.518;2023-05-12T12:30:03;100006.17;;;23.22;38.95
65013;BME280;51715;39.432;-77.518;2023-05-12T12:32:32;100007.57;;;23.47;38.03
65013;BME280;51715;39.432;-77.518;2023-05-12T12:35:00;100007.95;;;23.71;38.09
65013;BME280;51715;39.432;-77.518;2023-05-12T12:37:29;100008.57;;;23.75;39.20
65013;BME280;51715;39.432;-77.518;2023-05-12T12:39:58;100008.09;;;23.88;38.77
65013;BME280;51715;39.432;-77.518;2023-05-12T12:42:26;100005.90;;;23.98;39.45
65013;BME280;51715;39.432;-77.518;2023-05-12T12:44:54;100005.56;;;24.29;39.33
65013;BME280;51715;39.432;-77.518;2023-05-12T12:47:23;100001.52;;;24.18;38.22
65013;BME280;51715;39.432;-77.518;2023-05-12T12:49:52;100000.57;;;24.61;39.06
65013;BME280;51715;39.432;-77.518;2023-05-12T12:52:21;99998.53;;;24.71;37.62